ITM weather

Osaka International Airport
Osaka, Ōsaka Prefecture, Japan

Public forecast

Using degrees Celsius for public forecast. Weather courtesy of forecast.io.

Current aviation weather report (METAR) for Osaka International Airport

Retrieved 2019/10/23 09:00 UTC (2 minutes ago):

RJOO 230900Z 34008KT 9999 FEW025 SCT045 BKN/// 21/14 Q1016 RMK 1CU025 3SC045 A3001

Aviation forecast (TAF) for Osaka International Airport

Retrieved 2019/10/23 06:30 UTC (3 hours ago):

TAF RJOO 230507Z 2306/2412 32006KT 9999 FEW030 BECMG 2321/2400 07012KT TEMPO 2406/2412 07018G28KT RA